sensor_id;sensor_type;location;lat;lon;timestamp;P1;P2;P0
71794;PMS7003;59641;45.188;5.712;2023-11-21T00:00:08;22.50;20.50;17.00
71794;PMS7003;59641;45.188;5.712;2023-11-21T00:02:37;26.00;22.75;16.75
71794;PMS7003;59641;45.188;5.712;2023-11-21T00:05:05;22.75;22.25;15.00
71794;PMS7003;59641;45.188;5.712;2023-11-21T00:07:33;23.75;22.75;16.25
71794;PMS7003;59641;45.188;5.712;2023-11-21T00:09:58;25.00;20.50;16.00
71794;PMS7003;59641;45.188;5.712;2023-11-21T00:12:24;27.25;26.00;17.00
71794;PMS7003;59641;45.188;5.712;2023-11-21T00:14:49;25.00;23.75;18.25
71794;PMS7003;59641;45.188;5.712;2023-11-21T00:17:15;25.75;23.75;18.00
71794;PMS7003;59641;45.188;5.712;2023-11-21T00:19:40;28.75;26.50;18.25
71794;PMS7003;59641;45.188;5.712;2023-11-21T00:22:07;26.50;24.50;17.50
71794;PMS7003;59641;45.188;5.712;2023-11-21T00:24:33;22.50;22.00;15.25
71794;PMS7003;59641;45.188;5.712;2023-11-21T00:26:59;23.00;19.75;15.50
71794;PMS7003;59641;45.188;5.712;2023-11-21T00:29:24;23.50;22.50;15.75
71794;PMS7003;59641;45.188;5.712;2023-11-21T00:31:50;24.75;24.50;16.00
71794;PMS7003;59641;45.188;5.712;2023-11-21T00:34:16;23.50;21.25;15.50
71794;PMS7003;59641;45.188;5.712;2023-11-21T00:36:41;23.00;22.25;17.25
71794;PMS7003;59641;45.188;5.712;2023-11-21T00:39:07;22.75;21.75;17.00
71794;PMS7003;59641;45.188;5.712;2023-11-21T00:41:32;26.75;23.25;17.50
71794;PMS7003;59641;45.188;5.712;2023-11-21T00:43:58;23.75;21.25;15.75
71794;PMS7003;59641;45.188;5.712;2023-11-21T00:46:24;25.00;22.75;17.75
71794;PMS7003;59641;45.188;5.712;2023-11-21T00:48:52;23.00;23.00;16.00
71794;PMS7003;59641;45.188;5.712;2023-11-21T00:51:19;24.00;24.00;16.75
71794;PMS7003;59641;45.188;5.712;2023-11-21T00:53:44;24.50;23.50;16.50
71794;PMS7003;59641;45.188;5.712;2023-11-21T00:56:09;28.75;23.50;16.50
71794;PMS7003;59641;45.188;5.712;2023-11-21T00:58:35;24.75;22.00;16.75
71794;PMS7003;59641;45.188;5.712;2023-11-21T01:01:00;24.75;22.50;18.00
71794;PMS7003;59641;45.188;5.712;2023-11-21T01:03:26;20.25;19.25;11.25
71794;PMS7003;59641;45.188;5.712;2023-11-21T01:05:51;25.75;22.75;15.00
71794;PMS7003;59641;45.188;5.712;2023-11-21T01:08:16;20.75;19.50;15.75
71794;PMS7003;59641;45.188;5.712;2023-11-21T01:10:42;22.75;19.50;14.50
71794;PMS7003;59641;45.188;5.712;2023-11-21T01:13:07;15.50;13.00;8.25
71794;PMS7003;59641;45.188;5.712;2023-11-21T01:15:33;18.25;15.75;12.00
71794;PMS7003;59641;45.188;5.712;2023-11-21T01:17:59;14.00;13.25;9.25
71794;PMS7003;59641;45.188;5.712;2023-11-21T01:20:24;16.75;14.50;11.75
71794;PMS7003;59641;45.188;5.712;2023-11-21T01:22:50;13.50;13.00;11.00
71794;PMS7003;59641;45.188;5.712;2023-11-21T01:25:15;15.25;14.50;9.50
71794;PMS7003;59641;45.188;5.712;2023-11-21T01:27:41;14.75;13.25;9.00
71794;PMS7003;59641;45.188;5.712;2023-11-21T01:30:07;14.50;14.25;10.50
71794;PMS7003;59641;45.188;5.712;2023-11-21T01:32:35;13.00;13.00;10.25
71794;PMS7003;59641;45.188;5.712;2023-11-21T01:35:01;14.00;13.00;10.00
71794;PMS7003;59641;45.188;5.712;2023-11-21T01:37:26;11.25;11.25;8.50
71794;PMS7003;59641;45.188;5.712;2023-11-21T01:39:53;17.50;15.25;11.25
71794;PMS7003;59641;45.188;5.712;2023-11-21T01:42:20;18.50;17.25;13.50
71794;PMS7003;59641;45.188;5.712;2023-11-21T01:44:45;14.00;13.50;9.25
71794;PMS7003;59641;45.188;5.712;2023-11-21T01:47:11;17.50;15.50;9.50
71794;PMS7003;59641;45.188;5.712;2023-11-21T01:49:38;19.25;16.50;12.00
71794;PMS7003;59641;45.188;5.712;2023-11-21T01:52:03;19.00;17.50;12.75
71794;PMS7003;59641;45.188;5.712;2023-11-21T01:54:29;17.00;16.00;12.50
71794;PMS7003;59641;45.188;5.712;2023-11-21T01:56:57;18.00;17.50;12.00
71794;PMS7003;59641;45.188;5.712;2023-11-21T01:59:27;20.25;18.50;13.75
71794;PMS7003;59641;45.188;5.712;2023-11-21T02:01:58;18.50;16.75;11.25
71794;PMS7003;59641;45.188;5.712;2023-11-21T02:04:24;18.50;17.00;12.25
71794;PMS7003;59641;45.188;5.712;2023-11-21T02:06:50;20.50;18.25;12.50
71794;PMS7003;59641;45.188;5.712;2023-11-21T02:09:15;17.50;15.25;11.25
71794;PMS7003;59641;45.188;5.712;2023-11-21T02:11:42;19.50;18.25;13.25
71794;PMS7003;59641;45.188;5.712;2023-11-21T02:14:07;16.75;15.00;11.75
71794;PMS7003;59641;45.188;5.712;2023-11-21T02:16:34;14.50;14.25;10.50
71794;PMS7003;59641;45.188;5.712;2023-11-21T02:19:00;17.00;16.75;11.75
71794;PMS7003;59641;45.188;5.712;2023-11-21T02:21:28;15.50;15.00;11.00
71794;PMS7003;59641;45.188;5.712;2023-11-21T02:23:55;15.50;15.50;12.00
71794;PMS7003;59641;45.188;5.712;2023-11-21T02:26:20;18.50;15.75;10.75
71794;PMS7003;59641;45.188;5.712;2023-11-21T02:28:46;18.00;16.25;12.50
71794;PMS7003;59641;45.188;5.712;2023-11-21T02:31:11;19.25;16.00;13.25
71794;PMS7003;59641;45.188;5.712;2023-11-21T02:33:37;18.50;17.25;11.50
71794;PMS7003;59641;45.188;5.712;2023-11-21T02:36:03;16.75;15.50;11.50
71794;PMS7003;59641;45.188;5.712;2023-11-21T02:38:28;17.00;14.25;11.50
71794;PMS7003;59641;45.188;5.712;2023-11-21T02:40:54;15.50;15.25;11.50
71794;PMS7003;59641;45.188;5.712;2023-11-21T02:43:19;17.00;17.00;12.75
71794;PMS7003;59641;45.188;5.712;2023-11-21T02:45:44;16.75;15.00;12.50
71794;PMS7003;59641;45.188;5.712;2023-11-21T02:48:10;17.50;16.75;12.00
71794;PMS7003;59641;45.188;5.712;2023-11-21T02:50:35;15.25;13.50;11.25
71794;PMS7003;59641;45.188;5.712;2023-11-21T02:53:01;13.25;10.50;9.50
71794;PMS7003;59641;45.188;5.712;2023-11-21T02:55:27;14.00;14.00;10.25
71794;PMS7003;59641;45.188;5.712;2023-11-21T02:57:53;13.00;11.25;9.00
71794;PMS7003;59641;45.188;5.712;2023-11-21T03:00:18;15.75;12.25;9.25
71794;PMS7003;59641;45.188;5.712;2023-11-21T03:02:44;13.75;11.75;9.00
71794;PMS7003;59641;45.188;5.712;2023-11-21T03:05:10;10.50;9.25;8.00
71794;PMS7003;59641;45.188;5.712;2023-11-21T03:07:39;14.00;11.25;7.50
71794;PMS7003;59641;45.188;5.712;2023-11-21T03:10:05;10.50;10.50;7.50
71794;PMS7003;59641;45.188;5.712;2023-11-21T03:12:34;10.20;9.60;6.60
71794;PMS7003;59641;45.188;5.712;2023-11-21T03:14:59;6.25;5.50;2.50
71794;PMS7003;59641;45.188;5.712;2023-11-21T03:17:25;11.25;11.25;7.50
71794;PMS7003;59641;45.188;5.712;2023-11-21T03:19:50;10.25;10.25;7.25
71794;PMS7003;59641;45.188;5.712;2023-11-21T03:22:17;11.80;10.60;8.60
71794;PMS7003;59641;45.188;5.712;2023-11-21T03:24:42;12.75;10.75;7.50
71794;PMS7003;59641;45.188;5.712;2023-11-21T03:27:07;9.25;8.75;7.50
71794;PMS7003;59641;45.188;5.712;2023-11-21T03:29:33;12.00;9.75;7.75
71794;PMS7003;59641;45.188;5.712;2023-11-21T03:31:58;12.50;10.75;8.00
71794;PMS7003;59641;45.188;5.712;2023-11-21T03:34:27;11.50;11.00;7.75
71794;PMS7003;59641;45.188;5.712;2023-11-21T03:36:53;10.50;10.50;6.25
71794;PMS7003;59641;45.188;5.712;2023-11-21T03:39:19;8.00;7.00;5.75
71794;PMS7003;59641;45.188;5.712;2023-11-21T03:41:45;10.00;8.60;6.60
71794;PMS7003;59641;45.188;5.712;2023-11-21T03:44:10;9.50;7.50;4.75
71794;PMS7003;59641;45.188;5.712;2023-11-21T03:46:36;6.00;4.50;3.25
71794;PMS7003;59641;45.188;5.712;2023-11-21T03:49:01;8.75;8.00;4.50
71794;PMS7003;59641;45.188;5.712;2023-11-21T03:51:26;6.75;4.75;3.75
71794;PMS7003;59641;45.188;5.712;2023-11-21T03:53:52;7.50;5.50;4.25
71794;PMS7003;59641;45.188;5.712;2023-11-21T03:56:17;5.50;4.50;4.00
71794;PMS7003;59641;45.188;5.712;2023-11-21T03:58:43;6.00;6.00;4.50
71794;PMS7003;59641;45.188;5.712;2023-11-21T04:01:08;6.75;5.75;4.00
71794;PMS7003;59641;45.188;5.712;2023-11-21T04:03:33;3.75;3.75;3.00
71794;PMS7003;59641;45.188;5.712;2023-11-21T04:05:59;6.00;4.50;3.50
71794;PMS7003;59641;45.188;5.712;2023-11-21T04:08:26;5.80;5.80;4.60
71794;PMS7003;59641;45.188;5.712;2023-11-21T04:10:51;4.25;3.50;2.00
71794;PMS7003;59641;45.188;5.712;2023-11-21T04:13:18;6.20;5.40;3.80
71794;PMS7003;59641;45.188;5.712;2023-11-21T04:15:44;5.50;5.50;4.25
71794;PMS7003;59641;45.188;5.712;2023-11-21T04:18:09;5.00;5.00;4.50
71794;PMS7003;59641;45.188;5.712;2023-11-21T04:20:34;5.25;5.25;4.25
71794;PMS7003;59641;45.188;5.712;2023-11-21T04:23:00;3.50;2.75;2.50
71794;PMS7003;59641;45.188;5.712;2023-11-21T04:25:25;4.50;4.50;3.25
71794;PMS7003;59641;45.188;5.712;2023-11-21T04:27:50;4.00;4.00;3.00
71794;PMS7003;59641;45.188;5.712;2023-11-21T04:30:16;3.50;2.75;2.25
71794;PMS7003;59641;45.188;5.712;2023-11-21T04:32:41;2.75;2.75;2.25
71794;PMS7003;59641;45.188;5.712;2023-11-21T04:35:07;3.25;3.25;1.50
71794;PMS7003;59641;45.188;5.712;2023-11-21T04:37:33;1.20;1.20;0.20
71794;PMS7003;59641;45.188;5.712;2023-11-21T04:39:59;3.25;3.25;2.50
71794;PMS7003;59641;45.188;5.712;2023-11-21T04:42:24;2.00;2.00;1.25
71794;PMS7003;59641;45.188;5.712;2023-11-21T04:44:50;4.50;4.50;3.00
71794;PMS7003;59641;45.188;5.712;2023-11-21T04:47:15;6.25;6.25;4.00
71794;PMS7003;59641;45.188;5.712;2023-11-21T04:49:44;4.75;3.50;3.50
71794;PMS7003;59641;45.188;5.712;2023-11-21T04:52:12;5.00;4.20;3.20
71794;PMS7003;59641;45.188;5.712;2023-11-21T04:54:37;7.00;5.75;4.00
71794;PMS7003;59641;45.188;5.712;2023-11-21T04:57:02;2.75;2.75;1.75
71794;PMS7003;59641;45.188;5.712;2023-11-21T04:59:29;1.00;1.00;1.00
71794;PMS7003;59641;45.188;5.712;2023-11-21T05:01:54;3.25;2.25;1.50
71794;PMS7003;59641;45.188;5.712;2023-11-21T05:04:20;4.50;3.50;2.00
71794;PMS7003;59641;45.188;5.712;2023-11-21T05:06:47;3.50;3.50;3.00
71794;PMS7003;59641;45.188;5.712;2023-11-21T05:09:12;5.50;4.25;3.50
71794;PMS7003;59641;45.188;5.712;2023-11-21T05:11:38;3.50;3.50;3.50
71794;PMS7003;59641;45.188;5.712;2023-11-21T05:14:04;6.25;5.00;4.50
71794;PMS7003;59641;45.188;5.712;2023-11-21T05:16:30;5.80;5.00;4.00
71794;PMS7003;59641;45.188;5.712;2023-11-21T05:18:56;4.25;4.25;4.00
71794;PMS7003;59641;45.188;5.712;2023-11-21T05:21:25;5.20;4.60;3.80
71794;PMS7003;59641;45.188;5.712;2023-11-21T05:23:51;4.80;4.80;4.60
71794;PMS7003;59641;45.188;5.712;2023-11-21T05:26:16;5.25;4.75;3.50
71794;PMS7003;59641;45.188;5.712;2023-11-21T05:28:42;4.25;3.50;2.50
71794;PMS7003;59641;45.188;5.712;2023-11-21T05:31:07;4.25;4.25;2.50
71794;PMS7003;59641;45.188;5.712;2023-11-21T05:33:32;7.00;5.50;3.50
71794;PMS7003;59641;45.188;5.712;2023-11-21T05:35:58;4.25;3.75;3.50
71794;PMS7003;59641;45.188;5.712;2023-11-21T05:38:24;7.50;4.00;3.50
71794;PMS7003;59641;45.188;5.712;2023-11-21T05:40:49;5.50;3.50;2.50
71794;PMS7003;59641;45.188;5.712;2023-11-21T05:43:15;5.50;4.25;2.50
71794;PMS7003;59641;45.188;5.712;2023-11-21T05:45:40;5.00;3.50;2.50
71794;PMS7003;59641;45.188;5.712;2023-11-21T05:48:05;3.00;2.50;2.00
71794;PMS7003;59641;45.188;5.712;2023-11-21T05:50:31;1.50;1.50;1.25
71794;PMS7003;59641;45.188;5.712;2023-11-21T05:52:57;2.20;2.20;1.20
71794;PMS7003;59641;45.188;5.712;2023-11-21T05:55:24;3.40;2.00;1.20
71794;PMS7003;59641;45.188;5.712;2023-11-21T05:57:50;1.25;1.25;0.25
71794;PMS7003;59641;45.188;5.712;2023-11-21T06:00:16;1.00;1.00;0.50
71794;PMS7003;59641;45.188;5.712;2023-11-21T06:02:50;5.40;2.40;2.00
71794;PMS7003;59641;45.188;5.712;2023-11-21T06:05:22;1.60;1.60;1.60
71794;PMS7003;59641;45.188;5.712;2023-11-21T06:07:48;1.80;1.20;0.40
71794;PMS7003;59641;45.188;5.712;2023-11-21T06:10:14;1.40;1.40;0.60
71794;PMS7003;59641;45.188;5.712;2023-11-21T06:12:42;0.20;0.20;0.00
71794;PMS7003;59641;45.188;5.712;2023-11-21T06:15:08;2.75;1.75;1.50
71794;PMS7003;59641;45.188;5.712;2023-11-21T06:17:37;1.60;1.60;1.60
71794;PMS7003;59641;45.188;5.712;2023-11-21T06:20:02;1.50;1.50;1.50
71794;PMS7003;59641;45.188;5.712;2023-11-21T06:22:34;3.20;1.60;1.60
71794;PMS7003;59641;45.188;5.712;2023-11-21T06:25:02;3.20;2.80;1.60
71794;PMS7003;59641;45.188;5.712;2023-11-21T06:27:33;3.60;2.60;1.60
71794;PMS7003;59641;45.188;5.712;2023-11-21T06:30:01;4.80;4.80;3.60
71794;PMS7003;59641;45.188;5.712;2023-11-21T06:32:26;4.75;4.00;3.00
71794;PMS7003;59641;45.188;5.712;2023-11-21T06:34:54;4.50;4.50;3.75
71794;PMS7003;59641;45.188;5.712;2023-11-21T06:37:20;3.25;2.75;2.00
71794;PMS7003;59641;45.188;5.712;2023-11-21T06:39:48;4.60;4.40;3.40
71794;PMS7003;59641;45.188;5.712;2023-11-21T06:42:17;4.60;3.40;2.80
71794;PMS7003;59641;45.188;5.712;2023-11-21T06:44:44;3.50;2.75;1.50
71794;PMS7003;59641;45.188;5.712;2023-11-21T06:47:10;2.50;2.50;1.50
71794;PMS7003;59641;45.188;5.712;2023-11-21T06:49:35;5.00;4.00;2.50
71794;PMS7003;59641;45.188;5.712;2023-11-21T06:52:01;2.25;2.25;1.75
71794;PMS7003;59641;45.188;5.712;2023-11-21T06:54:28;5.75;2.50;1.50
71794;PMS7003;59641;45.188;5.712;2023-11-21T06:56:54;3.25;3.00;2.00
71794;PMS7003;59641;45.188;5.712;2023-11-21T06:59:19;3.50;2.50;2.00
71794;PMS7003;59641;45.188;5.712;2023-11-21T07:01:44;3.50;3.50;2.50
71794;PMS7003;59641;45.188;5.712;2023-11-21T07:04:10;2.75;2.25;1.50
71794;PMS7003;59641;45.188;5.712;2023-11-21T07:06:35;3.25;2.50;2.00
71794;PMS7003;59641;45.188;5.712;2023-11-21T07:09:01;3.50;2.75;1.75
71794;PMS7003;59641;45.188;5.712;2023-11-21T07:11:27;2.50;2.50;2.00
71794;PMS7003;59641;45.188;5.712;2023-11-21T07:13:52;5.40;4.20;2.60
71794;PMS7003;59641;45.188;5.712;2023-11-21T07:16:18;3.25;3.25;2.75
71794;PMS7003;59641;45.188;5.712;2023-11-21T07:18:44;2.20;2.20;2.20
71794;PMS7003;59641;45.188;5.712;2023-11-21T07:21:09;2.75;2.75;2.50
71794;PMS7003;59641;45.188;5.712;2023-11-21T07:23:36;3.40;3.40;2.60
71794;PMS7003;59641;45.188;5.712;2023-11-21T07:26:02;5.00;4.25;3.50
71794;PMS7003;59641;45.188;5.712;2023-11-21T07:28:28;5.50;4.50;4.00
71794;PMS7003;59641;45.188;5.712;2023-11-21T07:30:54;5.60;4.60;2.60
71794;PMS7003;59641;45.188;5.712;2023-11-21T07:33:19;4.25;4.25;3.50
71794;PMS7003;59641;45.188;5.712;2023-11-21T07:35:46;3.40;3.40;1.60
71794;PMS7003;59641;45.188;5.712;2023-11-21T07:38:11;3.75;2.75;2.50
71794;PMS7003;59641;45.188;5.712;2023-11-21T07:40:38;4.60;4.60;2.60
71794;PMS7003;59641;45.188;5.712;2023-11-21T07:43:03;4.00;3.50;2.50
71794;PMS7003;59641;45.188;5.712;2023-11-21T07:45:30;3.60;3.60;2.60
71794;PMS7003;59641;45.188;5.712;2023-11-21T07:47:55;7.50;4.50;2.50
71794;PMS7003;59641;45.188;5.712;2023-11-21T07:50:21;4.75;3.75;2.75
71794;PMS7003;59641;45.188;5.712;2023-11-21T07:52:47;6.40;4.80;2.60
71794;PMS7003;59641;45.188;5.712;2023-11-21T07:55:14;3.20;2.60;1.60
71794;PMS7003;59641;45.188;5.712;2023-11-21T07:57:40;2.50;2.50;1.50
71794;PMS7003;59641;45.188;5.712;2023-11-21T08:00:06;5.00;3.50;2.50
71794;PMS7003;59641;45.188;5.712;2023-11-21T08:02:34;4.40;4.40;3.00
71794;PMS7003;59641;45.188;5.712;2023-11-21T08:04:59;3.00;3.00;2.50
71794;PMS7003;59641;45.188;5.712;2023-11-21T08:07:25;4.50;4.00;3.50
71794;PMS7003;59641;45.188;5.712;2023-11-21T08:09:51;4.00;4.00;2.50
71794;PMS7003;59641;45.188;5.712;2023-11-21T08:12:17;5.25;4.50;3.25
71794;PMS7003;59641;45.188;5.712;2023-11-21T08:14:43;6.25;4.25;3.50
71794;PMS7003;59641;45.188;5.712;2023-11-21T08:17:09;2.60;2.60;2.40
71794;PMS7003;59641;45.188;5.712;2023-11-21T08:19:35;4.00;3.50;2.50
71794;PMS7003;59641;45.188;5.712;2023-11-21T08:22:01;6.80;5.20;4.40
71794;PMS7003;59641;45.188;5.712;2023-11-21T08:24:27;4.50;3.50;2.75
71794;PMS7003;59641;45.188;5.712;2023-11-21T08:26:52;4.75;4.50;2.50
71794;PMS7003;59641;45.188;5.712;2023-11-21T08:29:19;7.60;5.00;4.00
71794;PMS7003;59641;45.188;5.712;2023-11-21T08:31:44;2.50;2.50;2.50
71794;PMS7003;59641;45.188;5.712;2023-11-21T08:34:12;5.00;4.20;3.60
71794;PMS7003;59641;45.188;5.712;2023-11-21T08:36:41;4.60;4.60;3.60
71794;PMS7003;59641;45.188;5.712;2023-11-21T08:39:07;6.00;4.50;2.50
71794;PMS7003;59641;45.188;5.712;2023-11-21T08:41:34;4.00;3.20;2.80
71794;PMS7003;59641;45.188;5.712;2023-11-21T08:43:59;4.25;3.25;2.50
71794;PMS7003;59641;45.188;5.712;2023-11-21T08:46:25;4.75;4.50;4.00
71794;PMS7003;59641;45.188;5.712;2023-11-21T08:48:51;5.50;3.50;2.50
71794;PMS7003;59641;45.188;5.712;2023-11-21T08:51:17;3.40;3.40;2.80
71794;PMS7003;59641;45.188;5.712;2023-11-21T08:53:43;5.50;5.50;3.50
71794;PMS7003;59641;45.188;5.712;2023-11-21T08:56:12;5.00;3.50;2.75
71794;PMS7003;59641;45.188;5.712;2023-11-21T08:58:40;6.20;4.00;3.00
71794;PMS7003;59641;45.188;5.712;2023-11-21T09:01:06;4.60;2.60;1.60
71794;PMS7003;59641;45.188;5.712;2023-11-21T09:03:32;3.75;3.75;2.75
71794;PMS7003;59641;45.188;5.712;2023-11-21T09:05:59;7.00;5.00;3.00
71794;PMS7003;59641;45.188;5.712;2023-11-21T09:08:25;5.00;5.00;3.00
71794;PMS7003;59641;45.188;5.712;2023-11-21T09:10:50;5.75;5.25;2.50
71794;PMS7003;59641;45.188;5.712;2023-11-21T09:13:16;5.00;5.00;3.25
71794;PMS7003;59641;45.188;5.712;2023-11-21T09:15:42;5.00;3.60;2.60
71794;PMS7003;59641;45.188;5.712;2023-11-21T09:18:11;6.20;3.40;3.20
71794;PMS7003;59641;45.188;5.712;2023-11-21T09:20:40;3.80;3.20;3.00
71794;PMS7003;59641;45.188;5.712;2023-11-21T09:23:06;5.25;5.00;3.00
71794;PMS7003;59641;45.188;5.712;2023-11-21T09:25:32;4.60;4.60;3.00
71794;PMS7003;59641;45.188;5.712;2023-11-21T09:27:57;2.75;2.75;2.75
71794;PMS7003;59641;45.188;5.712;2023-11-21T09:30:23;4.50;3.50;2.50
71794;PMS7003;59641;45.188;5.712;2023-11-21T09:32:49;5.00;5.00;3.00
71794;PMS7003;59641;45.188;5.712;2023-11-21T09:35:15;3.80;3.80;2.80
71794;PMS7003;59641;45.188;5.712;2023-11-21T09:37:45;5.80;5.60;3.80
71794;PMS7003;59641;45.188;5.712;2023-11-21T09:40:11;6.60;4.60;4.00
71794;PMS7003;59641;45.188;5.712;2023-11-21T09:45:54;2.00;1.00;1.00
71794;PMS7003;59641;45.188;5.712;2023-11-21T09:48:24;2.80;2.80;2.40
71794;PMS7003;59641;45.188;5.712;2023-11-21T09:50:51;4.20;3.00;2.40
71794;PMS7003;59641;45.188;5.712;2023-11-21T09:53:19;4.00;4.00;3.60
71794;PMS7003;59641;45.188;5.712;2023-11-21T09:55:47;5.00;5.00;3.00
71794;PMS7003;59641;45.188;5.712;2023-11-21T09:58:16;5.80;3.00;2.80
71794;PMS7003;59641;45.188;5.712;2023-11-21T10:00:42;4.00;4.00;3.40
71794;PMS7003;59641;45.188;5.712;2023-11-21T10:03:10;6.60;5.40;3.80
71794;PMS7003;59641;45.188;5.712;2023-11-21T10:05:36;6.40;5.80;3.80
71794;PMS7003;59641;45.188;5.712;2023-11-21T10:08:04;5.25;5.25;3.50
71794;PMS7003;59641;45.188;5.712;2023-11-21T10:10:32;6.75;5.75;4.75
71794;PMS7003;59641;45.188;5.712;2023-11-21T10:12:57;7.50;5.50;4.50
71794;PMS7003;59641;45.188;5.712;2023-11-21T10:15:28;6.00;6.00;5.00
71794;PMS7003;59641;45.188;5.712;2023-11-21T10:17:55;4.80;4.40;4.00
71794;PMS7003;59641;45.188;5.712;2023-11-21T10:20:20;4.75;4.75;3.75
71794;PMS7003;59641;45.188;5.712;2023-11-21T10:22:45;5.00;3.50;2.50
71794;PMS7003;59641;45.188;5.712;2023-11-21T10:25:11;7.25;5.50;3.50
71794;PMS7003;59641;45.188;5.712;2023-11-21T10:27:41;4.60;4.60;2.60
71794;PMS7003;59641;45.188;5.712;2023-11-21T10:30:08;3.80;3.60;2.80
71794;PMS7003;59641;45.188;5.712;2023-11-21T10:32:37;8.20;5.40;4.60
71794;PMS7003;59641;45.188;5.712;2023-11-21T10:35:05;4.60;4.60;3.80
71794;PMS7003;59641;45.188;5.712;2023-11-21T10:37:37;5.60;4.20;2.80
71794;PMS7003;59641;45.188;5.712;2023-11-21T10:40:09;3.40;3.20;2.80
71794;PMS7003;59641;45.188;5.712;2023-11-21T10:42:38;3.80;3.20;2.40
71794;PMS7003;59641;45.188;5.712;2023-11-21T10:45:05;3.40;3.40;3.40
71794;PMS7003;59641;45.188;5.712;2023-11-21T10:47:41;5.20;4.00;3.20
71794;PMS7003;59641;45.188;5.712;2023-11-21T10:50:07;4.00;4.00;3.00
71794;PMS7003;59641;45.188;5.712;2023-11-21T10:52:39;3.80;3.80;2.80
71794;PMS7003;59641;45.188;5.712;2023-11-21T10:55:17;2.40;2.00;1.00
71794;PMS7003;59641;45.188;5.712;2023-11-21T10:57:56;4.20;3.20;2.20
71794;PMS7003;59641;45.188;5.712;2023-11-21T11:00:23;4.20;4.20;3.40
71794;PMS7003;59641;45.188;5.712;2023-11-21T11:02:51;4.60;3.20;2.80
71794;PMS7003;59641;45.188;5.712;2023-11-21T11:05:20;2.80;2.80;2.60
71794;PMS7003;59641;45.188;5.712;2023-11-21T11:07:48;5.00;3.60;2.40
71794;PMS7003;59641;45.188;5.712;2023-11-21T11:10:19;3.60;3.60;2.80
71794;PMS7003;59641;45.188;5.712;2023-11-21T11:12:47;2.80;2.80;2.40
71794;PMS7003;59641;45.188;5.712;2023-11-21T11:15:15;3.60;1.20;1.20
71794;PMS7003;59641;45.188;5.712;2023-11-21T11:17:41;2.60;2.60;1.60
71794;PMS7003;59641;45.188;5.712;2023-11-21T11:20:08;2.00;2.00;0.00
71794;PMS7003;59641;45.188;5.712;2023-11-21T11:22:40;4.00;3.00;1.40
71794;PMS7003;59641;45.188;5.712;2023-11-21T11:25:25;1.20;1.20;1.00
71794;PMS7003;59641;45.188;5.712;2023-11-21T11:28:11;4.80;3.20;2.00
71794;PMS7003;59641;45.188;5.712;2023-11-21T11:33:51;2.40;2.40;1.60
71794;PMS7003;59641;45.188;5.712;2023-11-21T11:38:54;1.80;1.80;1.60
71794;PMS7003;59641;45.188;5.712;2023-11-21T11:41:39;2.60;2.60;2.20
71794;PMS7003;59641;45.188;5.712;2023-11-21T11:44:09;3.40;2.60;1.60
71794;PMS7003;59641;45.188;5.712;2023-11-21T11:47:13;2.40;2.40;2.40
71794;PMS7003;59641;45.188;5.712;2023-11-21T11:55:16;5.60;5.00;3.20
71794;PMS7003;59641;45.188;5.712;2023-11-21T11:57:47;5.60;4.00;2.60
71794;PMS7003;59641;45.188;5.712;2023-11-21T12:00:20;3.60;3.00;2.40
71794;PMS7003;59641;45.188;5.712;2023-11-21T12:02:53;3.00;3.00;2.20
71794;PMS7003;59641;45.188;5.712;2023-11-21T12:05:20;3.60;3.60;3.00
71794;PMS7003;59641;45.188;5.712;2023-11-21T12:07:51;4.20;3.20;1.80
71794;PMS7003;59641;45.188;5.712;2023-11-21T12:10:19;6.40;2.80;2.60
71794;PMS7003;59641;45.188;5.712;2023-11-21T12:12:48;2.60;2.60;1.60
71794;PMS7003;59641;45.188;5.712;2023-11-21T12:15:15;1.60;1.60;1.60
71794;PMS7003;59641;45.188;5.712;2023-11-21T12:17:41;3.20;2.60;1.60
71794;PMS7003;59641;45.188;5.712;2023-11-21T12:20:13;3.20;3.20;2.20
71794;PMS7003;59641;45.188;5.712;2023-11-21T12:22:51;3.20;2.40;1.60
71794;PMS7003;59641;45.188;5.712;2023-11-21T12:25:22;3.60;3.20;2.80
71794;PMS7003;59641;45.188;5.712;2023-11-21T12:27:50;3.00;3.00;2.00
71794;PMS7003;59641;45.188;5.712;2023-11-21T12:30:17;1.20;0.80;0.20
71794;PMS7003;59641;45.188;5.712;2023-11-21T12:32:44;2.60;2.60;2.40
71794;PMS7003;59641;45.188;5.712;2023-11-21T12:35:12;2.60;1.60;1.60
71794;PMS7003;59641;45.188;5.712;2023-11-21T12:37:38;3.25;2.00;1.50
71794;PMS7003;59641;45.188;5.712;2023-11-21T12:40:05;3.60;3.60;2.60
71794;PMS7003;59641;45.188;5.712;2023-11-21T12:42:32;2.20;1.60;1.20
71794;PMS7003;59641;45.188;5.712;2023-11-21T12:47:45;0.60;0.60;0.60
71794;PMS7003;59641;45.188;5.712;2023-11-21T12:50:12;1.80;1.80;1.60
71794;PMS7003;59641;45.188;5.712;2023-11-21T12:52:41;1.80;1.80;1.80
71794;PMS7003;59641;45.188;5.712;2023-11-21T12:55:12;3.60;3.60;1.60
71794;PMS7003;59641;45.188;5.712;2023-11-21T12:57:54;1.60;1.60;0.80
71794;PMS7003;59641;45.188;5.712;2023-11-21T13:00:26;2.40;1.80;1.40
71794;PMS7003;59641;45.188;5.712;2023-11-21T13:02:54;2.60;2.60;2.00
71794;PMS7003;59641;45.188;5.712;2023-11-21T13:05:28;1.60;0.60;0.60
71794;PMS7003;59641;45.188;5.712;2023-11-21T13:07:56;2.60;2.60;1.80
71794;PMS7003;59641;45.188;5.712;2023-11-21T13:10:23;2.40;2.40;1.60
71794;PMS7003;59641;45.188;5.712;2023-11-21T13:12:56;1.20;1.20;1.00
71794;PMS7003;59641;45.188;5.712;2023-11-21T13:15:25;2.40;2.40;0.60
71794;PMS7003;59641;45.188;5.712;2023-11-21T13:17:52;1.40;0.60;0.60
71794;PMS7003;59641;45.188;5.712;2023-11-21T13:20:18;1.60;1.60;0.80
71794;PMS7003;59641;45.188;5.712;2023-11-21T13:25:14;2.40;2.40;1.60
71794;PMS7003;59641;45.188;5.712;2023-11-21T13:27:42;2.20;1.60;1.60
71794;PMS7003;59641;45.188;5.712;2023-11-21T13:30:09;1.60;1.60;1.60
71794;PMS7003;59641;45.188;5.712;2023-11-21T13:32:35;1.75;1.25;1.25
71794;PMS7003;59641;45.188;5.712;2023-11-21T13:35:00;0.50;0.50;0.50
71794;PMS7003;59641;45.188;5.712;2023-11-21T13:37:26;1.50;1.50;0.50
71794;PMS7003;59641;45.188;5.712;2023-11-21T13:39:53;0.60;0.60;0.60
71794;PMS7003;59641;45.188;5.712;2023-11-21T13:42:19;0.80;0.80;0.60
71794;PMS7003;59641;45.188;5.712;2023-11-21T13:44:55;1.00;1.00;0.60
71794;PMS7003;59641;45.188;5.712;2023-11-21T13:47:21;1.60;1.60;1.60
71794;PMS7003;59641;45.188;5.712;2023-11-21T13:49:50;0.60;0.60;0.20
71794;PMS7003;59641;45.188;5.712;2023-11-21T13:52:15;1.50;0.75;0.25
71794;PMS7003;59641;45.188;5.712;2023-11-21T13:54:42;1.00;1.00;0.60
71794;PMS7003;59641;45.188;5.712;2023-11-21T13:57:08;1.50;1.50;1.50
71794;PMS7003;59641;45.188;5.712;2023-11-21T13:59:33;0.50;0.50;0.50
71794;PMS7003;59641;45.188;5.712;2023-11-21T14:01:58;2.25;2.25;1.25
71794;PMS7003;59641;45.188;5.712;2023-11-21T14:04:42;2.20;1.40;0.80
71794;PMS7003;59641;45.188;5.712;2023-11-21T14:07:13;1.20;1.20;0.60
71794;PMS7003;59641;45.188;5.712;2023-11-21T14:09:57;1.40;1.40;1.40
71794;PMS7003;59641;45.188;5.712;2023-11-21T14:12:23;1.00;1.00;0.60
71794;PMS7003;59641;45.188;5.712;2023-11-21T14:14:49;0.25;0.25;0.25
71794;PMS7003;59641;45.188;5.712;2023-11-21T14:17:14;1.25;1.25;0.50
71794;PMS7003;59641;45.188;5.712;2023-11-21T14:19:40;0.50;0.50;0.50
71794;PMS7003;59641;45.188;5.712;2023-11-21T14:22:08;1.20;1.20;1.00
71794;PMS7003;59641;45.188;5.712;2023-11-21T14:24:35;1.20;1.20;0.60
71794;PMS7003;59641;45.188;5.712;2023-11-21T14:27:00;1.50;1.50;1.25
71794;PMS7003;59641;45.188;5.712;2023-11-21T14:29:26;3.00;3.00;2.25
71794;PMS7003;59641;45.188;5.712;2023-11-21T14:31:52;2.00;1.80;1.00